sensor_id;sensor_type;location;lat;lon;timestamp;pressure;altitude;pressure_sealevel;temperature;humidity
76590;BME280;65471;55.908;37.880;2024-01-06T00:01:16;99435.03;;;-20.31;76.06
76590;BME280;65471;55.908;37.880;2024-01-06T00:03:43;99433.94;;;-20.24;75.75
76590;BME280;65471;55.908;37.880;2024-01-06T00:06:14;99435.50;;;-20.18;75.76
76590;BME280;65471;55.908;37.880;2024-01-06T00:08:41;99432.78;;;-20.13;75.63
76590;BME280;65471;55.908;37.880;2024-01-06T00:11:09;99429.41;;;-20.16;75.54
76590;BME280;65471;55.908;37.880;2024-01-06T00:13:36;99423.28;;;-20.11;75.38
76590;BME280;65471;55.908;37.880;2024-01-06T00:16:03;99413.06;;;-20.13;75.62
76590;BME280;65471;55.908;37.880;2024-01-06T00:18:30;99419.03;;;-20.12;75.73
76590;BME280;65471;55.908;37.880;2024-01-06T00:20:57;99430.91;;;-20.08;75.81
76590;BME280;65471;55.908;37.880;2024-01-06T00:23:24;99419.63;;;-20.04;75.84
76590;BME280;65471;55.908;37.880;2024-01-06T00:25:51;99429.94;;;-20.04;75.96
76590;BME280;65471;55.908;37.880;2024-01-06T00:28:18;99414.28;;;-19.98;75.47
76590;BME280;65471;55.908;37.880;2024-01-06T00:30:45;99402.97;;;-19.92;75.77
76590;BME280;65471;55.908;37.880;2024-01-06T00:33:12;99405.44;;;-19.89;75.55
76590;BME280;65471;55.908;37.880;2024-01-06T00:35:40;99407.22;;;-19.91;75.75
76590;BME280;65471;55.908;37.880;2024-01-06T00:38:07;99410.53;;;-19.88;75.57
76590;BME280;65471;55.908;37.880;2024-01-06T00:40:34;99414.91;;;-19.90;75.71
76590;BME280;65471;55.908;37.880;2024-01-06T00:43:01;99414.19;;;-19.95;75.69
76590;BME280;65471;55.908;37.880;2024-01-06T00:45:28;99401.31;;;-19.95;75.83
76590;BME280;65471;55.908;37.880;2024-01-06T00:47:55;99415.50;;;-19.82;75.98
76590;BME280;65471;55.908;37.880;2024-01-06T00:50:22;99412.88;;;-19.80;75.79
76590;BME280;65471;55.908;37.880;2024-01-06T00:52:49;99411.69;;;-19.71;75.81
76590;BME280;65471;55.908;37.880;2024-01-06T00:55:20;99407.25;;;-19.66;75.55
76590;BME280;65471;55.908;37.880;2024-01-06T00:57:47;99401.28;;;-19.68;75.76
76590;BME280;65471;55.908;37.880;2024-01-06T01:00:14;99414.09;;;-19.67;75.47
76590;BME280;65471;55.908;37.880;2024-01-06T01:02:42;99414.81;;;-19.61;75.89
76590;BME280;65471;55.908;37.880;2024-01-06T01:05:09;99418.97;;;-19.57;75.70
76590;BME280;65471;55.908;37.880;2024-01-06T01:07:36;99403.66;;;-19.62;75.80
76590;BME280;65471;55.908;37.880;2024-01-06T01:10:03;99417.13;;;-19.54;75.39
76590;BME280;65471;55.908;37.880;2024-01-06T01:12:31;99419.59;;;-19.51;75.29
76590;BME280;65471;55.908;37.880;2024-01-06T01:14:58;99424.53;;;-19.44;75.72
76590;BME280;65471;55.908;37.880;2024-01-06T01:17:25;99425.22;;;-19.39;75.79
76590;BME280;65471;55.908;37.880;2024-01-06T01:19:52;99420.00;;;-19.36;75.57
76590;BME280;65471;55.908;37.880;2024-01-06T01:22:19;99427.78;;;-19.39;76.06
76590;BME280;65471;55.908;37.880;2024-01-06T01:24:46;99406.25;;;-19.37;76.04
76590;BME280;65471;55.908;37.880;2024-01-06T01:27:13;99420.69;;;-19.33;75.96
76590;BME280;65471;55.908;37.880;2024-01-06T01:29:40;99431.06;;;-19.34;75.84
76590;BME280;65471;55.908;37.880;2024-01-06T01:32:07;99425.16;;;-19.38;75.71
76590;BME280;65471;55.908;37.880;2024-01-06T01:34:34;99424.66;;;-19.48;75.45
76590;BME280;65471;55.908;37.880;2024-01-06T01:37:01;99427.84;;;-19.41;76.02
76590;BME280;65471;55.908;37.880;2024-01-06T01:39:28;99428.47;;;-19.34;76.20
76590;BME280;65471;55.908;37.880;2024-01-06T01:41:55;99420.81;;;-19.36;75.91
76590;BME280;65471;55.908;37.880;2024-01-06T01:44:22;99429.25;;;-19.31;75.80
76590;BME280;65471;55.908;37.880;2024-01-06T01:46:49;99422.34;;;-19.30;76.09
76590;BME280;65471;55.908;37.880;2024-01-06T01:49:16;99421.53;;;-19.32;75.89
76590;BME280;65471;55.908;37.880;2024-01-06T01:51:44;99428.47;;;-19.34;75.87
76590;BME280;65471;55.908;37.880;2024-01-06T01:54:11;99402.94;;;-19.40;75.99
76590;BME280;65471;55.908;37.880;2024-01-06T01:56:39;99417.31;;;-19.33;76.12
76590;BME280;65471;55.908;37.880;2024-01-06T01:59:11;99423.28;;;-19.33;75.66
76590;BME280;65471;55.908;37.880;2024-01-06T02:01:40;99414.66;;;-19.32;75.99
76590;BME280;65471;55.908;37.880;2024-01-06T02:04:07;99403.50;;;-19.32;75.91
76590;BME280;65471;55.908;37.880;2024-01-06T02:06:34;99396.06;;;-19.40;76.08
76590;BME280;65471;55.908;37.880;2024-01-06T02:09:01;99410.75;;;-19.43;76.18
76590;BME280;65471;55.908;37.880;2024-01-06T02:11:29;99395.94;;;-19.37;76.14
76590;BME280;65471;55.908;37.880;2024-01-06T02:13:56;99396.13;;;-19.41;76.04
76590;BME280;65471;55.908;37.880;2024-01-06T02:16:23;99397.69;;;-19.37;76.58
76590;BME280;65471;55.908;37.880;2024-01-06T02:18:50;99400.03;;;-19.31;76.47
76590;BME280;65471;55.908;37.880;2024-01-06T02:21:17;99353.50;;;-19.50;76.05
76590;BME280;65471;55.908;37.880;2024-01-06T02:23:47;99389.84;;;-19.34;76.21
76590;BME280;65471;55.908;37.880;2024-01-06T02:26:14;99355.13;;;-19.48;76.37
76590;BME280;65471;55.908;37.880;2024-01-06T02:28:41;99387.00;;;-19.26;76.30
76590;BME280;65471;55.908;37.880;2024-01-06T02:31:11;99384.28;;;-19.22;76.10
76590;BME280;65471;55.908;37.880;2024-01-06T02:33:38;99392.69;;;-19.17;76.57
76590;BME280;65471;55.908;37.880;2024-01-06T02:36:06;99390.22;;;-19.20;76.46
76590;BME280;65471;55.908;37.880;2024-01-06T02:38:33;99391.91;;;-19.19;76.36
76590;BME280;65471;55.908;37.880;2024-01-06T02:41:00;99396.19;;;-19.19;76.13
76590;BME280;65471;55.908;37.880;2024-01-06T02:43:27;99397.38;;;-19.28;76.11
76590;BME280;65471;55.908;37.880;2024-01-06T02:45:54;99396.53;;;-19.29;75.93
76590;BME280;65471;55.908;37.880;2024-01-06T02:48:21;99394.13;;;-19.33;76.31
76590;BME280;65471;55.908;37.880;2024-01-06T02:50:48;99378.72;;;-19.35;76.44
76590;BME280;65471;55.908;37.880;2024-01-06T02:53:15;99396.25;;;-19.21;76.53
76590;BME280;65471;55.908;37.880;2024-01-06T02:55:42;99401.31;;;-19.18;76.55
76590;BME280;65471;55.908;37.880;2024-01-06T02:58:08;99404.56;;;-19.13;76.33
76590;BME280;65471;55.908;37.880;2024-01-06T03:00:35;99414.97;;;-19.16;76.29
76590;BME280;65471;55.908;37.880;2024-01-06T03:03:03;99414.97;;;-19.16;76.69
76590;BME280;65471;55.908;37.880;2024-01-06T03:05:30;99410.03;;;-19.22;76.53
76590;BME280;65471;55.908;37.880;2024-01-06T03:07:58;99414.38;;;-19.24;76.56
76590;BME280;65471;55.908;37.880;2024-01-06T03:10:25;99410.00;;;-19.20;76.78
76590;BME280;65471;55.908;37.880;2024-01-06T03:12:52;99406.47;;;-19.18;76.48
76590;BME280;65471;55.908;37.880;2024-01-06T03:15:19;99408.13;;;-19.17;76.29
76590;BME280;65471;55.908;37.880;2024-01-06T03:17:46;99407.31;;;-19.17;76.60
76590;BME280;65471;55.908;37.880;2024-01-06T03:20:14;99401.25;;;-19.16;76.27
76590;BME280;65471;55.908;37.880;2024-01-06T03:22:41;99410.66;;;-19.15;76.52
76590;BME280;65471;55.908;37.880;2024-01-06T03:25:08;99403.72;;;-19.13;76.92
76590;BME280;65471;55.908;37.880;2024-01-06T03:27:35;99397.69;;;-19.12;76.38
76590;BME280;65471;55.908;37.880;2024-01-06T03:30:02;99393.47;;;-19.15;76.20
76590;BME280;65471;55.908;37.880;2024-01-06T03:32:30;99392.69;;;-19.17;76.73
76590;BME280;65471;55.908;37.880;2024-01-06T03:34:57;99396.94;;;-19.16;76.39
76590;BME280;65471;55.908;37.880;2024-01-06T03:37:24;99390.09;;;-19.17;76.74
76590;BME280;65471;55.908;37.880;2024-01-06T03:39:51;99382.44;;;-19.18;76.40
76590;BME280;65471;55.908;37.880;2024-01-06T03:42:18;99396.22;;;-19.44;76.69
76590;BME280;65471;55.908;37.880;2024-01-06T03:44:45;99391.09;;;-19.21;76.91
76590;BME280;65471;55.908;37.880;2024-01-06T03:47:12;99392.22;;;-19.28;76.76
76590;BME280;65471;55.908;37.880;2024-01-06T03:49:39;99396.41;;;-19.25;76.69
76590;BME280;65471;55.908;37.880;2024-01-06T03:52:06;99396.25;;;-19.21;76.77
76590;BME280;65471;55.908;37.880;2024-01-06T03:54:33;99399.00;;;-19.25;76.70
76590;BME280;65471;55.908;37.880;2024-01-06T03:57:00;99397.22;;;-19.23;76.50
76590;BME280;65471;55.908;37.880;2024-01-06T03:59:27;99396.25;;;-19.21;76.38
76590;BME280;65471;55.908;37.880;2024-01-06T04:01:54;99403.97;;;-19.21;76.50
76590;BME280;65471;55.908;37.880;2024-01-06T04:04:21;99409.41;;;-19.29;76.94
76590;BME280;65471;55.908;37.880;2024-01-06T04:06:48;99407.72;;;-19.30;76.94
76590;BME280;65471;55.908;37.880;2024-01-06T04:09:15;99404.19;;;-19.27;76.85
76590;BME280;65471;55.908;37.880;2024-01-06T04:11:44;99403.31;;;-19.26;76.69
76590;BME280;65471;55.908;37.880;2024-01-06T04:14:11;99406.50;;;-19.19;76.51
76590;BME280;65471;55.908;37.880;2024-01-06T04:16:38;99414.16;;;-19.16;76.63
76590;BME280;65471;55.908;37.880;2024-01-06T04:19:05;99409.81;;;-19.16;76.52
76590;BME280;65471;55.908;37.880;2024-01-06T04:21:34;99409.75;;;-19.14;76.54
76590;BME280;65471;55.908;37.880;2024-01-06T04:24:01;99408.03;;;-19.14;76.54
76590;BME280;65471;55.908;37.880;2024-01-06T04:26:28;99408.19;;;-19.18;76.57
76590;BME280;65471;55.908;37.880;2024-01-06T04:28:55;99403.97;;;-19.21;76.46
76590;BME280;65471;55.908;37.880;2024-01-06T04:31:22;99413.44;;;-19.21;76.40
76590;BME280;65471;55.908;37.880;2024-01-06T04:33:49;99416.84;;;-19.21;76.70
76590;BME280;65471;55.908;37.880;2024-01-06T04:36:16;99423.59;;;-19.17;76.90
76590;BME280;65471;55.908;37.880;2024-01-06T04:38:43;99423.47;;;-19.14;77.02
76590;BME280;65471;55.908;37.880;2024-01-06T04:41:09;99419.19;;;-19.13;77.00
76590;BME280;65471;55.908;37.880;2024-01-06T04:43:36;99409.72;;;-19.13;76.93
76590;BME280;65471;55.908;37.880;2024-01-06T04:46:03;99410.56;;;-19.12;76.73
76590;BME280;65471;55.908;37.880;2024-01-06T04:48:30;99406.25;;;-19.12;76.88
76590;BME280;65471;55.908;37.880;2024-01-06T04:50:58;99415.59;;;-19.09;76.84
76590;BME280;65471;55.908;37.880;2024-01-06T04:53:24;99412.09;;;-19.06;76.52
76590;BME280;65471;55.908;37.880;2024-01-06T04:55:51;99420.59;;;-19.04;76.48
76590;BME280;65471;55.908;37.880;2024-01-06T04:58:18;99418.00;;;-19.04;76.52
76590;BME280;65471;55.908;37.880;2024-01-06T05:00:45;99416.16;;;-19.01;76.83
76590;BME280;65471;55.908;37.880;2024-01-06T05:03:12;99420.66;;;-19.06;76.75
76590;BME280;65471;55.908;37.880;2024-01-06T05:05:40;99423.44;;;-19.12;76.63
76590;BME280;65471;55.908;37.880;2024-01-06T05:08:07;99419.00;;;-19.08;76.87
76590;BME280;65471;55.908;37.880;2024-01-06T05:10:33;99416.22;;;-19.02;77.16
76590;BME280;65471;55.908;37.880;2024-01-06T05:13:00;99422.06;;;-18.97;77.33
76590;BME280;65471;55.908;37.880;2024-01-06T05:15:27;99421.06;;;-18.93;77.14
76590;BME280;65471;55.908;37.880;2024-01-06T05:17:55;99422.63;;;-18.89;77.19
76590;BME280;65471;55.908;37.880;2024-01-06T05:20:22;99433.81;;;-18.90;77.17
76590;BME280;65471;55.908;37.880;2024-01-06T05:22:49;99426.91;;;-18.88;76.77
76590;BME280;65471;55.908;37.880;2024-01-06T05:25:16;99428.41;;;-18.84;77.11
76590;BME280;65471;55.908;37.880;2024-01-06T05:27:43;99436.13;;;-18.84;77.11
76590;BME280;65471;55.908;37.880;2024-01-06T05:30:10;99432.00;;;-18.86;77.14
76590;BME280;65471;55.908;37.880;2024-01-06T05:32:37;99432.78;;;-18.86;76.75
76590;BME280;65471;55.908;37.880;2024-01-06T05:35:05;99439.59;;;-18.83;77.17
76590;BME280;65471;55.908;37.880;2024-01-06T05:37:32;99436.88;;;-18.80;76.93
76590;BME280;65471;55.908;37.880;2024-01-06T05:39:59;99436.84;;;-18.79;76.71
76590;BME280;65471;55.908;37.880;2024-01-06T05:42:29;99433.47;;;-18.81;77.10
76590;BME280;65471;55.908;37.880;2024-01-06T05:44:56;99438.88;;;-18.87;76.82
76590;BME280;65471;55.908;37.880;2024-01-06T05:47:23;99413.81;;;-19.07;77.17
76590;BME280;65471;55.908;37.880;2024-01-06T05:49:50;99444.06;;;-18.88;77.28
76590;BME280;65471;55.908;37.880;2024-01-06T05:52:17;99433.75;;;-18.88;76.82
76590;BME280;65471;55.908;37.880;2024-01-06T05:54:44;99437.22;;;-18.88;77.19
76590;BME280;65471;55.908;37.880;2024-01-06T05:57:11;99437.88;;;-18.84;77.02
76590;BME280;65471;55.908;37.880;2024-01-06T05:59:39;99442.22;;;-18.85;77.02
76590;BME280;65471;55.908;37.880;2024-01-06T06:02:05;99445.78;;;-18.87;76.95
76590;BME280;65471;55.908;37.880;2024-01-06T06:04:32;99461.34;;;-18.90;76.78
76590;BME280;65471;55.908;37.880;2024-01-06T06:07:00;99444.06;;;-18.88;77.04
76590;BME280;65471;55.908;37.880;2024-01-06T06:09:28;99453.25;;;-18.81;76.91
76590;BME280;65471;55.908;37.880;2024-01-06T06:11:55;99448.81;;;-18.78;77.17
76590;BME280;65471;55.908;37.880;2024-01-06T06:14:22;99449.47;;;-18.72;77.20
76590;BME280;65471;55.908;37.880;2024-01-06T06:16:53;99457.06;;;-18.68;77.23
76590;BME280;65471;55.908;37.880;2024-01-06T06:19:20;99448.47;;;-18.68;76.61
76590;BME280;65471;55.908;37.880;2024-01-06T06:21:47;99439.97;;;-18.70;77.10
76590;BME280;65471;55.908;37.880;2024-01-06T06:24:14;99438.16;;;-18.68;77.03
76590;BME280;65471;55.908;37.880;2024-01-06T06:26:41;99437.16;;;-18.64;77.12
76590;BME280;65471;55.908;37.880;2024-01-06T06:29:08;99437.91;;;-18.61;76.71
76590;BME280;65471;55.908;37.880;2024-01-06T06:31:35;99447.25;;;-18.58;77.02
76590;BME280;65471;55.908;37.880;2024-01-06T06:34:02;99451.41;;;-18.54;77.34
76590;BME280;65471;55.908;37.880;2024-01-06T06:36:34;99458.00;;;-18.47;76.99
76590;BME280;65471;55.908;37.880;2024-01-06T06:39:02;99428.59;;;-18.65;76.87
76590;BME280;65471;55.908;37.880;2024-01-06T06:41:30;99458.63;;;-18.40;76.55
76590;BME280;65471;55.908;37.880;2024-01-06T06:43:57;99461.94;;;-18.36;76.44
76590;BME280;65471;55.908;37.880;2024-01-06T06:46:24;99460.25;;;-18.37;76.74
76590;BME280;65471;55.908;37.880;2024-01-06T06:48:51;99466.03;;;-18.31;76.83
76590;BME280;65471;55.908;37.880;2024-01-06T06:51:18;99468.63;;;-18.31;77.09
76590;BME280;65471;55.908;37.880;2024-01-06T06:53:45;99465.97;;;-18.29;77.25
76590;BME280;65471;55.908;37.880;2024-01-06T06:56:15;99460.59;;;-18.23;77.08
76590;BME280;65471;55.908;37.880;2024-01-06T06:58:44;99464.06;;;-18.24;76.81
76590;BME280;65471;55.908;37.880;2024-01-06T07:01:14;99470.91;;;-18.23;76.77
76590;BME280;65471;55.908;37.880;2024-01-06T07:03:42;99468.44;;;-18.26;76.85
76590;BME280;65471;55.908;37.880;2024-01-06T07:06:11;99481.28;;;-18.25;76.73
76590;BME280;65471;55.908;37.880;2024-01-06T07:08:39;99482.16;;;-18.26;77.01
76590;BME280;65471;55.908;37.880;2024-01-06T07:11:05;99482.78;;;-18.19;76.72
76590;BME280;65471;55.908;37.880;2024-01-06T07:13:32;99482.91;;;-18.22;76.71
76590;BME280;65471;55.908;37.880;2024-01-06T07:15:59;99484.31;;;-18.13;76.89
76590;BME280;65471;55.908;37.880;2024-01-06T07:18:43;99490.84;;;-18.04;76.94
76590;BME280;65471;55.908;37.880;2024-01-06T07:21:12;99488.28;;;-18.04;76.65
76590;BME280;65471;55.908;37.880;2024-01-06T07:23:39;99485.56;;;-18.01;76.54
76590;BME280;65471;55.908;37.880;2024-01-06T07:26:06;99492.03;;;-17.91;76.72
76590;BME280;65471;55.908;37.880;2024-01-06T07:28:35;99459.03;;;-18.05;76.50
76590;BME280;65471;55.908;37.880;2024-01-06T07:31:01;99489.09;;;-17.82;76.45
76590;BME280;65471;55.908;37.880;2024-01-06T07:33:29;99487.19;;;-17.77;76.65
76590;BME280;65471;55.908;37.880;2024-01-06T07:35:56;99494.75;;;-17.72;76.68
76590;BME280;65471;55.908;37.880;2024-01-06T07:38:23;99494.81;;;-17.74;76.43
76590;BME280;65471;55.908;37.880;2024-01-06T07:40:49;99490.19;;;-17.65;76.80
76590;BME280;65471;55.908;37.880;2024-01-06T07:43:16;99491.63;;;-17.58;76.55
76590;BME280;65471;55.908;37.880;2024-01-06T07:45:44;99486.34;;;-17.55;76.46
76590;BME280;65471;55.908;37.880;2024-01-06T07:48:11;99489.56;;;-17.50;76.58
76590;BME280;65471;55.908;37.880;2024-01-06T07:50:38;99485.13;;;-17.46;76.67
76590;BME280;65471;55.908;37.880;2024-01-06T07:53:05;99489.56;;;-17.50;76.23
76590;BME280;65471;55.908;37.880;2024-01-06T07:55:32;99487.75;;;-17.48;76.53
76590;BME280;65471;55.908;37.880;2024-01-06T07:57:58;99481.38;;;-17.39;76.46
76590;BME280;65471;55.908;37.880;2024-01-06T08:00:26;99485.59;;;-17.37;76.48
76590;BME280;65471;55.908;37.880;2024-01-06T08:02:52;99488.94;;;-17.34;76.44
76590;BME280;65471;55.908;37.880;2024-01-06T08:05:19;99487.97;;;-17.32;76.36
76590;BME280;65471;55.908;37.880;2024-01-06T08:07:46;99490.38;;;-17.27;76.56
76590;BME280;65471;55.908;37.880;2024-01-06T08:10:13;99496.25;;;-17.24;76.48
76590;BME280;65471;55.908;37.880;2024-01-06T08:12:40;99488.19;;;-17.16;76.37
76590;BME280;65471;55.908;37.880;2024-01-06T08:15:08;99488.03;;;-17.13;76.49
76590;BME280;65471;55.908;37.880;2024-01-06T08:17:36;99483.91;;;-17.17;76.73
76590;BME280;65471;55.908;37.880;2024-01-06T08:20:04;99489.72;;;-17.12;76.74
76590;BME280;65471;55.908;37.880;2024-01-06T08:22:31;99495.56;;;-17.07;76.80
76590;BME280;65471;55.908;37.880;2024-01-06T08:24:58;99492.06;;;-17.06;77.12
76590;BME280;65471;55.908;37.880;2024-01-06T08:27:25;99488.13;;;-16.94;76.85
76590;BME280;65471;55.908;37.880;2024-01-06T08:29:52;99467.06;;;-16.86;76.64
76590;BME280;65471;55.908;37.880;2024-01-06T08:32:19;99466.19;;;-16.85;76.52
76590;BME280;65471;55.908;37.880;2024-01-06T08:34:46;99470.25;;;-16.79;76.97
76590;BME280;65471;55.908;37.880;2024-01-06T08:37:14;99429.28;;;-16.89;76.65
76590;BME280;65471;55.908;37.880;2024-01-06T08:39:41;99457.81;;;-16.71;76.39
76590;BME280;65471;55.908;37.880;2024-01-06T08:42:08;99459.63;;;-16.73;76.12
76590;BME280;65471;55.908;37.880;2024-01-06T08:44:34;99456.34;;;-16.77;76.21
76590;BME280;65471;55.908;37.880;2024-01-06T08:47:01;99459.47;;;-16.89;76.44
76590;BME280;65471;55.908;37.880;2024-01-06T08:49:29;99467.88;;;-16.84;76.24
76590;BME280;65471;55.908;37.880;2024-01-06T08:51:57;99459.47;;;-16.89;76.25
76590;BME280;65471;55.908;37.880;2024-01-06T08:54:24;99456.00;;;-16.88;76.21
76590;BME280;65471;55.908;37.880;2024-01-06T08:56:51;99445.78;;;-16.91;76.50
76590;BME280;65471;55.908;37.880;2024-01-06T08:59:17;99458.34;;;-16.83;76.28
76590;BME280;65471;55.908;37.880;2024-01-06T09:01:45;99453.75;;;-16.77;76.47
76590;BME280;65471;55.908;37.880;2024-01-06T09:04:15;99451.88;;;-16.73;76.45
76590;BME280;65471;55.908;37.880;2024-01-06T09:06:42;99440.53;;;-16.71;76.32
76590;BME280;65471;55.908;37.880;2024-01-06T09:09:09;99440.09;;;-16.60;76.36
76590;BME280;65471;55.908;37.880;2024-01-06T09:11:37;99432.13;;;-16.55;76.44
76590;BME280;65471;55.908;37.880;2024-01-06T09:14:04;99446.66;;;-16.53;76.17
76590;BME280;65471;55.908;37.880;2024-01-06T09:16:31;99444.41;;;-16.60;76.18
76590;BME280;65471;55.908;37.880;2024-01-06T09:18:58;99453.72;;;-16.56;76.53
76590;BME280;65471;55.908;37.880;2024-01-06T09:21:25;99453.78;;;-16.58;75.94
76590;BME280;65471;55.908;37.880;2024-01-06T09:23:52;99445.94;;;-16.56;76.08
76590;BME280;65471;55.908;37.880;2024-01-06T09:26:19;99425.78;;;-16.69;76.23
76590;BME280;65471;55.908;37.880;2024-01-06T09:28:46;99456.66;;;-16.45;76.48
76590;BME280;65471;55.908;37.880;2024-01-06T09:31:14;99454.63;;;-16.38;76.62
76590;BME280;65471;55.908;37.880;2024-01-06T09:33:41;99457.00;;;-16.34;76.02
76590;BME280;65471;55.908;37.880;2024-01-06T09:36:08;99452.75;;;-16.35;75.85
76590;BME280;65471;55.908;37.880;2024-01-06T09:38:39;99444.91;;;-16.33;75.83
76590;BME280;65471;55.908;37.880;2024-01-06T09:41:06;99444.91;;;-16.33;76.04
76590;BME280;65471;55.908;37.880;2024-01-06T09:43:33;99444.78;;;-16.30;76.30
76590;BME280;65471;55.908;37.880;2024-01-06T09:46:06;99442.59;;;-16.20;76.24
76590;BME280;65471;55.908;37.880;2024-01-06T09:48:40;99430.09;;;-16.29;76.31
76590;BME280;65471;55.908;37.880;2024-01-06T09:51:11;99429.19;;;-16.28;76.34
76590;BME280;65471;55.908;37.880;2024-01-06T09:53:56;99429.31;;;-16.32;76.50
76590;BME280;65471;55.908;37.880;2024-01-06T09:56:24;99441.13;;;-16.26;76.00
76590;BME280;65471;55.908;37.880;2024-01-06T09:58:52;99435.19;;;-16.28;76.14
76590;BME280;65471;55.908;37.880;2024-01-06T10:01:19;99419.16;;;-16.36;75.90
76590;BME280;65471;55.908;37.880;2024-01-06T10:03:47;99423.22;;;-16.30;76.32
76590;BME280;65471;55.908;37.880;2024-01-06T10:06:15;99416.03;;;-16.43;76.27
76590;BME280;65471;55.908;37.880;2024-01-06T10:08:43;99419.03;;;-16.33;76.32
76590;BME280;65471;55.908;37.880;2024-01-06T10:11:10;99424.84;;;-16.28;76.54
76590;BME280;65471;55.908;37.880;2024-01-06T10:13:37;99428.88;;;-16.22;76.49
76590;BME280;65471;55.908;37.880;2024-01-06T10:16:08;99428.66;;;-16.18;76.13
76590;BME280;65471;55.908;37.880;2024-01-06T10:18:35;99415.81;;;-16.19;76.26
76590;BME280;65471;55.908;37.880;2024-01-06T10:21:06;99420.63;;;-16.11;76.37
76590;BME280;65471;55.908;37.880;2024-01-06T10:23:33;99417.81;;;-16.07;76.31
76590;BME280;65471;55.908;37.880;2024-01-06T10:26:00;99406.63;;;-16.07;76.01
76590;BME280;65471;55.908;37.880;2024-01-06T10:28:31;99408.44;;;-16.09;76.33
76590;BME280;65471;55.908;37.880;2024-01-06T10:30:59;99411.78;;;-16.07;76.09
76590;BME280;65471;55.908;37.880;2024-01-06T10:33:26;99411.44;;;-16.00;75.99
76590;BME280;65471;55.908;37.880;2024-01-06T10:35:54;99409.41;;;-15.93;76.04
76590;BME280;65471;55.908;37.880;2024-01-06T10:38:26;99411.00;;;-15.90;75.93
76590;BME280;65471;55.908;37.880;2024-01-06T10:40:59;99401.09;;;-15.82;76.23
76590;BME280;65471;55.908;37.880;2024-01-06T10:43:27;99401.81;;;-15.78;75.96
76590;BME280;65471;55.908;37.880;2024-01-06T10:45:58;99363.53;;;-16.08;76.05
76590;BME280;65471;55.908;37.880;2024-01-06T10:48:30;99393.81;;;-15.91;76.23
76590;BME280;65471;55.908;37.880;2024-01-06T10:50:58;99388.00;;;-15.96;75.97
76590;BME280;65471;55.908;37.880;2024-01-06T10:53:26;99375.41;;;-16.04;75.79
76590;BME280;65471;55.908;37.880;2024-01-06T10:55:53;99403.38;;;-15.93;75.81
76590;BME280;65471;55.908;37.880;2024-01-06T10:58:22;99388.91;;;-15.98;76.07
76590;BME280;65471;55.908;37.880;2024-01-06T11:00:49;99394.00;;;-15.96;76.25
76590;BME280;65471;55.908;37.880;2024-01-06T11:03:17;99389.53;;;-15.92;76.01
76590;BME280;65471;55.908;37.880;2024-01-06T11:05:45;99392.75;;;-15.87;76.15
76590;BME280;65471;55.908;37.880;2024-01-06T11:08:12;99391.13;;;-15.90;75.78
76590;BME280;65471;55.908;37.880;2024-01-06T11:10:39;99389.75;;;-15.97;76.17
76590;BME280;65471;55.908;37.880;2024-01-06T11:13:22;99360.69;;;-16.21;76.17
76590;BME280;65471;55.908;37.880;2024-01-06T11:15:51;99396.81;;;-16.01;76.27
76590;BME280;65471;55.908;37.880;2024-01-06T11:18:38;99395.75;;;-15.96;76.46
76590;BME280;65471;55.908;37.880;2024-01-06T11:23:45;99394.63;;;-15.91;76.01
76590;BME280;65471;55.908;37.880;2024-01-06T11:26:13;99389.38;;;-15.89;76.27
76590;BME280;65471;55.908;37.880;2024-01-06T11:28:47;99364.28;;;-16.06;76.05
76590;BME280;65471;55.908;37.880;2024-01-06T11:31:14;99396.38;;;-15.91;76.02
76590;BME280;65471;55.908;37.880;2024-01-06T11:33:43;99405.06;;;-15.92;76.08
76590;BME280;65471;55.908;37.880;2024-01-06T11:36:11;99398.50;;;-16.00;76.41
76590;BME280;65471;55.908;37.880;2024-01-06T11:38:39;99395.00;;;-15.99;76.60
76590;BME280;65471;55.908;37.880;2024-01-06T11:41:07;99361.50;;;-16.21;76.36
76590;BME280;65471;55.908;37.880;2024-01-06T11:43:35;99401.09;;;-16.00;76.83
76590;BME280;65471;55.908;37.880;2024-01-06T11:46:06;99397.78;;;-16.03;76.53
76590;BME280;65471;55.908;37.880;2024-01-06T11:48:34;99406.63;;;-16.07;76.63
76590;BME280;65471;55.908;37.880;2024-01-06T11:51:02;99387.41;;;-16.21;76.72
76590;BME280;65471;55.908;37.880;2024-01-06T11:53:30;99410.06;;;-16.07;76.48
76590;BME280;65471;55.908;37.880;2024-01-06T11:55:57;99405.44;;;-16.19;76.36
76590;BME280;65471;55.908;37.880;2024-01-06T11:58:24;99407.63;;;-16.29;76.82
76590;BME280;65471;55.908;37.880;2024-01-06T12:00:55;99405.97;;;-16.30;77.11
76590;BME280;65471;55.908;37.880;2024-01-06T12:03:24;99402.59;;;-16.32;77.07
76590;BME280;65471;55.908;37.880;2024-01-06T12:06:02;99406.00;;;-16.32;76.59
76590;BME280;65471;55.908;37.880;2024-01-06T12:08:29;99412.72;;;-16.27;76.74
76590;BME280;65471;55.908;37.880;2024-01-06T12:11:03;99411.91;;;-16.28;76.43
76590;BME280;65471;55.908;37.880;2024-01-06T12:13:31;99407.13;;;-16.37;76.49
76590;BME280;65471;55.908;37.880;2024-01-06T12:15:57;99415.53;;;-16.32;76.75
76590;BME280;65471;55.908;37.880;2024-01-06T12:18:25;99421.59;;;-16.33;76.52
76590;BME280;65471;55.908;37.880;2024-01-06T12:20:54;99421.69;;;-16.35;76.24
76590;BME280;65471;55.908;37.880;2024-01-06T12:23:26;99428.84;;;-16.40;76.87
76590;BME280;65471;55.908;37.880;2024-01-06T12:25:55;99421.81;;;-16.38;76.66
76590;BME280;65471;55.908;37.880;2024-01-06T12:28:22;99428.06;;;-16.42;76.76
76590;BME280;65471;55.908;37.880;2024-01-06T12:30:49;99428.13;;;-16.43;76.87
76590;BME280;65471;55.908;37.880;2024-01-06T12:33:16;99433.09;;;-16.39;76.62
76590;BME280;65471;55.908;37.880;2024-01-06T12:35:44;99435.59;;;-16.37;76.92
76590;BME280;65471;55.908;37.880;2024-01-06T12:38:11;99421.34;;;-16.46;76.67
76590;BME280;65471;55.908;37.880;2024-01-06T12:40:38;99436.75;;;-16.43;77.01
76590;BME280;65471;55.908;37.880;2024-01-06T12:43:05;99401.47;;;-16.64;76.74
76590;BME280;65471;55.908;37.880;2024-01-06T12:45:33;99436.16;;;-16.50;76.79